createdAt,value
2023-01-25T00:05:20.291Z,0.80
2023-01-25T00:15:28.821Z,1.00
2023-01-25T00:25:35.601Z,0.70
2023-01-25T00:35:44.651Z,0.70
2023-01-25T00:45:55.772Z,1.35
2023-01-25T00:56:04.579Z,1.00
2023-01-25T01:06:13.151Z,0.88
2023-01-25T01:16:21.789Z,0.80
2023-01-25T01:26:31.868Z,1.00
2023-01-25T01:36:41.435Z,1.00
2023-01-25T01:46:55.796Z,1.05
2023-01-25T01:57:12.104Z,1.00
2023-01-25T02:07:23.901Z,1.10
2023-01-25T02:17:34.818Z,0.90
2023-01-25T02:27:47.942Z,1.25
2023-01-25T02:37:55.141Z,2.17
2023-01-25T02:48:04.720Z,2.40
2023-01-25T02:58:11.648Z,7.28
2023-01-25T03:08:21.002Z,9.93
2023-01-25T03:18:31.199Z,7.57
2023-01-25T03:28:41.871Z,3.92
2023-01-25T03:38:48.784Z,2.30
2023-01-25T03:48:59.059Z,1.85
2023-01-25T03:59:06.284Z,1.30
2023-01-25T04:09:21.296Z,1.20
2023-01-25T04:19:31.617Z,1.20
2023-01-25T04:29:42.298Z,1.20
2023-01-25T04:39:55.215Z,1.02
2023-01-25T04:50:06.425Z,0.90
2023-01-25T05:00:15.167Z,0.80
2023-01-25T05:10:23.979Z,1.00
2023-01-25T05:20:50.899Z,0.70
2023-01-25T05:30:59.535Z,0.90
2023-01-25T05:41:07.061Z,1.20
2023-01-25T05:51:16.682Z,1.00
2023-01-25T06:01:23.986Z,0.93
2023-01-25T06:11:37.640Z,0.90
2023-01-25T06:21:44.419Z,1.00
2023-01-25T06:31:52.923Z,0.90
2023-01-25T06:41:59.933Z,0.80
2023-01-25T06:52:08.839Z,0.75
2023-01-25T07:02:18.323Z,0.80
2023-01-25T07:12:26.882Z,0.70
2023-01-25T07:22:33.614Z,0.70
2023-01-25T07:32:41.942Z,0.68
2023-01-25T07:42:49.310Z,0.70
2023-01-25T07:53:00.846Z,0.65
2023-01-25T08:03:08.456Z,0.77
2023-01-25T08:13:16.827Z,0.55
2023-01-25T08:23:23.692Z,0.60
2023-01-25T08:33:32.087Z,0.68
2023-01-25T08:43:39.282Z,0.63
2023-01-25T08:53:48.075Z,0.85
2023-01-25T09:03:54.967Z,0.70
2023-01-25T09:14:03.428Z,0.52
2023-01-25T09:24:10.916Z,0.63
2023-01-25T09:34:21.543Z,0.60
2023-01-25T09:44:59.502Z,0.65
2023-01-25T09:55:17.323Z,0.52
2023-01-25T10:05:26.517Z,0.55
2023-01-25T10:15:39.112Z,0.57
2023-01-25T10:25:54.521Z,0.68
2023-01-25T10:36:06.655Z,0.60
2023-01-25T10:46:23.089Z,0.60
2023-01-25T10:56:33.088Z,0.70
2023-01-25T11:06:41.176Z,0.70
2023-01-25T11:16:50.671Z,0.50
2023-01-25T11:27:16.450Z,0.65
2023-01-25T11:37:49.761Z,0.63
2023-01-25T11:48:15.104Z,0.60
2023-01-25T11:58:38.766Z,0.60
2023-01-25T12:09:05.591Z,0.77
2023-01-25T12:19:31.838Z,0.70
2023-01-25T12:29:42.514Z,0.60
2023-01-25T12:39:55.202Z,0.77
2023-01-25T12:50:07.188Z,0.50
2023-01-25T13:00:24.645Z,0.50
2023-01-25T13:10:37.489Z,0.60
2023-01-25T13:20:56.878Z,0.70
2023-01-25T13:31:03.777Z,0.70
2023-01-25T13:41:17.866Z,0.57
2023-01-25T13:51:28.306Z,0.60
2023-01-25T14:01:39.296Z,0.70
2023-01-25T14:11:54.927Z,0.57
2023-01-25T14:22:25.917Z,0.50
2023-01-25T14:32:32.738Z,0.65
2023-01-25T14:42:41.287Z,0.80
2023-01-25T14:52:48.281Z,0.70
2023-01-25T15:02:59.691Z,0.60
2023-01-25T15:13:14.229Z,0.60
2023-01-25T15:23:27.842Z,0.60
2023-01-25T15:33:35.258Z,1.10
2023-01-25T15:43:44.109Z,1.10
2023-01-25T15:53:51.022Z,1.30
2023-01-25T16:04:01.541Z,1.60
2023-01-25T16:14:08.408Z,1.30
2023-01-25T16:24:17.145Z,1.80
2023-01-25T16:34:24.838Z,1.70
2023-01-25T16:44:33.356Z,2.58
2023-01-25T16:54:40.324Z,1.80
2023-01-25T17:04:49.128Z,1.60
2023-01-25T17:14:56.123Z,1.42
2023-01-25T17:25:04.577Z,1.30
2023-01-25T17:35:11.967Z,1.30
2023-01-25T17:45:20.390Z,1.10
2023-01-25T17:55:27.330Z,1.10
2023-01-25T18:05:36.279Z,0.98
2023-01-25T18:15:43.068Z,1.00
2023-01-25T18:25:51.628Z,1.00
2023-01-25T18:36:02.608Z,1.00
2023-01-25T18:46:12.390Z,0.95
2023-01-25T18:56:21.137Z,0.90
2023-01-25T19:06:30.143Z,0.98
2023-01-25T19:16:36.841Z,1.30
2023-01-25T19:26:45.569Z,1.60
2023-01-25T19:36:54.512Z,1.20
2023-01-25T19:47:04.253Z,1.23
2023-01-25T19:57:11.685Z,1.50
2023-01-25T20:07:21.165Z,1.42
2023-01-25T20:17:27.947Z,1.33
2023-01-25T20:27:36.250Z,1.52
2023-01-25T20:37:43.144Z,1.38
2023-01-25T20:47:51.623Z,1.83
2023-01-25T20:57:58.376Z,1.35
2023-01-25T21:08:07.874Z,1.02
2023-01-25T21:18:14.578Z,1.10
2023-01-25T21:28:23.085Z,1.10
2023-01-25T21:38:29.866Z,1.33
2023-01-25T21:48:54.797Z,1.27
2023-01-25T21:59:01.635Z,1.02
2023-01-25T22:09:10.671Z,1.40
2023-01-25T22:19:20.130Z,1.30
2023-01-25T22:29:28.416Z,1.40
2023-01-25T22:39:35.168Z,1.27
2023-01-25T22:49:43.505Z,1.17
2023-01-25T22:59:52.120Z,1.20
2023-01-25T23:10:00.797Z,1.02
2023-01-25T23:20:21.023Z,1.00
2023-01-25T23:30:35.936Z,0.80
2023-01-25T23:40:42.656Z,1.08
2023-01-25T23:50:51.035Z,1.00
